KHSP/HSP METAR and TAF weather

Enter ICAO airport designator
Station Type Date Time Source
KHSP METAR 2022/01/12 14:55 UTC NOAA

KHSP 121455Z AUTO 27019G26KT 10SM CLR 02/M10 A3013 RMK AO1 T00211097


Station Type Date Time Source
KHSP Decoded METAR 2022/01/12 14:55 UTC NOAA

Hot Springs / Ingalls, VA, United States (KHSP) 37-57N 079-50W
Jan 12, 2022 - 09:55 AM EST / 2022.01.12 1455 UTC
Wind: from the W (270 degrees) at 22 MPH (19 KT) gusting to 30 MPH (26 KT):0
Visibility: 10 mile(s):0
Sky conditions: clear
Temperature: 35.8 F (2.1 C)
Dew Point: 14.5 F (-9.7 C)
Relative Humidity: 41%
Pressure (altimeter): 30.13 in. Hg (1020 hPa)
ob: KHSP 121455Z AUTO 27019G26KT 10SM CLR 02/M10 A3013 RMK AO1 T00211097
cycle: 15

Station Type Date Time Source
KHSP TAF UTC NOAA

Error!

Example: see airport list